Time;durP1;ratioP1;P1;durP2;ratioP2;P2;SDS_P1;SDS_P2;PMS_P1;PMS_P2;Temp;Humidity;BMP_temperature;BMP_pressure;BME280_temperature;BME280_humidity;BME280_pressure;Samples;Min_cycle;Max_cycle;Signal;HPM_P1;HPM_P2
2022/05/10 00:01:48;;;;;;;5.72;3.50;;;15.40;78.30;;;;;;4909876;29;20043;-82
2022/05/10 00:04:15;;;;;;;7.07;3.72;;;15.30;78.90;;;;;;4934132;28;22816;-82
2022/05/10 00:06:49;;;;;;;7.35;3.53;;;15.30;79.10;;;;;;4914818;29;20046;-82
2022/05/10 00:09:27;;;;;;;6.28;2.95;;;15.30;79.70;;;;;;4945990;28;20066;-82
2022/05/10 00:12:00;;;;;;;7.22;4.20;;;15.30;79.90;;;;;;4923187;29;20166;-82
2022/05/10 00:14:35;;;;;;;5.43;2.50;;;15.30;80.30;;;;;;4943832;28;20063;-82
2022/05/10 00:18:05;;;;;;;9.00;4.22;;;15.20;80.60;;;;;;4939139;29;20110;-82
2022/05/10 00:20:37;;;;;;;8.40;4.20;;;15.20;81.50;;;;;;4919595;28;20039;-82
2022/05/10 00:23:04;;;;;;;8.68;3.92;;;15.20;81.50;;;;;;4932016;29;20047;-82
2022/05/10 00:25:48;;;;;;;8.32;3.97;;;15.10;81.80;;;;;;4945843;28;20384;-81
2022/05/10 00:28:15;;;;;;;6.20;4.90;;;15.10;82.10;;;;;;4929888;29;20042;-81
2022/05/10 00:30:43;;;;;;;7.90;5.07;;;15.10;82.50;;;;;;4924202;28;20471;-82
2022/05/10 00:33:17;;;;;;;9.02;5.15;;;15.10;83.10;;;;;;4925104;29;20036;-82
2022/05/10 00:35:47;;;;;;;6.47;4.80;;;15.10;83.70;;;;;;4939547;28;21954;-82
2022/05/10 00:38:53;;;;;;;5.32;4.40;;;15.00;83.80;;;;;;4938449;28;20059;-82
2022/05/10 00:41:39;;;;;;;6.82;4.53;;;15.00;84.20;;;;;;4914341;29;20043;-81
2022/05/10 00:44:27;;;;;;;7.90;5.13;;;15.00;84.60;;;;;;4952444;28;20020;-81
2022/05/10 00:47:37;;;;;;;8.30;4.97;;;15.00;85.40;;;;;;4937297;28;20048;-81
2022/05/10 00:50:48;;;;;;;10.23;5.35;;;14.90;85.80;;;;;;4934538;29;20023;-81
2022/05/10 00:53:25;;;;;;;8.30;4.93;;;14.90;86.50;;;;;;4941398;28;20506;-81
2022/05/10 00:56:10;;;;;;;7.13;5.55;;;14.80;86.70;;;;;;4945641;28;20054;-81
2022/05/10 00:58:45;;;;;;;10.43;6.30;;;14.80;87.50;;;;;;4928796;29;20042;-82
2022/05/10 01:01:19;;;;;;;7.25;5.28;;;14.80;87.90;;;;;;4945694;28;20027;-81
2022/05/10 01:03:56;;;;;;;8.93;5.82;;;14.70;88.70;;;;;;4946872;28;20471;-81
2022/05/10 01:06:30;;;;;;;9.93;6.35;;;14.70;89.30;;;;;;4945793;28;20039;-82
2022/05/10 01:09:15;;;;;;;10.77;6.53;;;14.70;90.00;;;;;;4925091;28;20028;-82
2022/05/10 01:11:47;;;;;;;10.98;6.07;;;14.70;90.50;;;;;;4933462;28;20034;-81
2022/05/10 01:14:43;;;;;;;8.00;6.30;;;14.70;90.70;;;;;;4946011;28;20393;-82
2022/05/10 01:17:10;;;;;;;10.18;6.13;;;14.60;91.00;;;;;;4950753;28;20039;-82
2022/05/10 01:19:38;;;;;;;11.38;6.38;;;14.60;91.30;;;;;;4947880;28;20039;-82
2022/05/10 01:22:26;;;;;;;9.93;7.30;;;14.60;91.70;;;;;;4928289;28;20489;-82
2022/05/10 01:25:24;;;;;;;10.52;6.88;;;14.60;92.40;;;;;;4947073;28;20474;-82
2022/05/10 01:28:11;;;;;;;9.57;5.80;;;14.60;92.70;;;;;;4947660;28;20489;-81
2022/05/10 01:30:38;;;;;;;10.02;6.97;;;14.50;93.10;;;;;;4945253;28;20027;-82
2022/05/10 01:33:36;;;;;;;10.05;7.18;;;14.50;93.40;;;;;;4945179;28;20118;-81
2022/05/10 01:36:32;;;;;;;11.98;7.97;;;14.50;94.00;;;;;;4961707;28;20084;-81
2022/05/10 01:39:09;;;;;;;8.48;6.55;;;14.50;94.30;;;;;;4929978;28;20034;-82
2022/05/10 01:41:52;;;;;;;11.10;6.68;;;14.40;94.50;;;;;;4924735;28;20050;-83
2022/05/10 01:44:29;;;;;;;11.65;7.75;;;14.40;94.80;;;;;;4949000;28;20031;-80
2022/05/10 01:47:22;;;;;;;10.02;7.47;;;14.40;95.30;;;;;;4959410;28;20043;-83
2022/05/10 01:50:02;;;;;;;10.45;6.72;;;14.40;95.90;;;;;;4924755;28;20030;-82
2022/05/10 01:53:05;;;;;;;11.38;6.50;;;14.30;96.10;;;;;;4928374;28;20085;-82
2022/05/10 01:55:51;;;;;;;9.18;6.75;;;14.30;96.60;;;;;;4944757;28;20035;-82
2022/05/10 01:58:28;;;;;;;11.45;6.78;;;14.20;96.90;;;;;;4942141;28;20053;-82
2022/05/10 02:01:04;;;;;;;9.63;7.38;;;14.20;97.40;;;;;;4948796;28;20038;-83
2022/05/10 02:04:11;;;;;;;12.90;8.00;;;14.20;97.70;;;;;;4958665;28;20031;-83
2022/05/10 02:06:54;;;;;;;13.48;8.68;;;14.10;98.10;;;;;;4941922;28;20046;-81
2022/05/10 02:09:42;;;;;;;12.90;9.27;;;14.10;98.20;;;;;;4947915;28;20729;-83
2022/05/10 02:12:09;;;;;;;15.40;11.73;;;14.10;98.30;;;;;;4944744;28;20399;-82
2022/05/10 02:15:02;;;;;;;20.15;12.82;;;14.10;98.40;;;;;;4941275;28;20466;-82
2022/05/10 02:17:46;;;;;;;17.63;12.10;;;14.00;98.80;;;;;;4930915;28;20024;-80
2022/05/10 02:20:17;;;;;;;16.15;12.05;;;14.00;99.10;;;;;;4945630;28;20038;-81
2022/05/10 02:22:54;;;;;;;13.98;11.70;;;14.00;99.30;;;;;;4939090;28;20061;-80
2022/05/10 02:25:25;;;;;;;18.40;11.32;;;14.00;99.50;;;;;;4928371;28;20392;-80
2022/05/10 02:27:57;;;;;;;14.87;10.30;;;13.90;99.80;;;;;;4929221;28;20031;-80
2022/05/10 02:30:32;;;;;;;11.80;9.13;;;13.90;99.90;;;;;;4942648;28;20026;-80
2022/05/10 02:33:07;;;;;;;11.35;7.50;;;13.90;99.90;;;;;;4941294;28;20447;-80
2022/05/10 02:35:56;;;;;;;11.82;7.43;;;13.90;99.90;;;;;;4959148;28;20487;-81
2022/05/10 02:38:36;;;;;;;15.88;9.20;;;13.90;99.90;;;;;;4941291;28;20046;-82
2022/05/10 02:41:12;;;;;;;12.40;8.20;;;13.90;99.90;;;;;;4959125;28;20019;-82
2022/05/10 02:43:51;;;;;;;14.50;10.85;;;13.90;99.90;;;;;;4945788;28;20386;-82
2022/05/10 02:46:20;;;;;;;14.70;8.98;;;13.90;99.90;;;;;;4960641;28;20100;-82
2022/05/10 02:48:48;;;;;;;12.45;7.90;;;13.90;99.90;;;;;;4939149;28;20043;-82
2022/05/10 02:51:17;;;;;;;12.27;7.80;;;14.00;99.90;;;;;;4920722;28;20375;-81
2022/05/10 02:53:45;;;;;;;15.48;10.20;;;14.00;99.90;;;;;;4931642;28;20026;-81
2022/05/10 02:56:14;;;;;;;19.70;13.80;;;14.00;99.90;;;;;;4945772;28;20046;-81
2022/05/10 02:58:46;;;;;;;19.98;12.70;;;14.00;99.90;;;;;;4925716;28;20034;-82
2022/05/10 03:01:26;;;;;;;15.32;11.60;;;14.00;99.90;;;;;;4942123;28;20506;-82
2022/05/10 03:03:53;;;;;;;17.60;12.35;;;14.00;99.90;;;;;;4957848;28;20075;-82
2022/05/10 03:06:24;;;;;;;16.85;10.20;;;14.10;99.90;;;;;;4926804;28;20030;-82
2022/05/10 03:08:56;;;;;;;15.82;9.68;;;14.10;99.90;;;;;;4956165;28;20034;-82
2022/05/10 03:11:23;;;;;;;11.95;7.95;;;14.00;99.90;;;;;;4922701;28;20025;-82
2022/05/10 03:13:51;;;;;;;10.27;7.57;;;14.00;99.90;;;;;;4961566;28;20042;-82
2022/05/10 03:16:17;;;;;;;12.15;7.93;;;14.00;99.90;;;;;;4943928;28;20021;-82
2022/05/10 03:18:45;;;;;;;10.95;7.15;;;14.00;99.90;;;;;;4939781;28;20019;-81
2022/05/10 03:21:12;;;;;;;10.50;8.70;;;14.00;99.90;;;;;;4940146;28;20023;-82
2022/05/10 03:23:39;;;;;;;15.20;10.10;;;13.90;99.90;;;;;;4926388;28;20047;-81
2022/05/10 03:26:07;;;;;;;10.27;7.82;;;14.00;99.90;;;;;;4940539;28;20522;-81
2022/05/10 03:28:36;;;;;;;12.98;8.05;;;14.00;99.90;;;;;;4928877;28;20038;-82
2022/05/10 03:31:05;;;;;;;11.57;8.13;;;14.00;99.90;;;;;;4928916;28;20371;-81
2022/05/10 03:33:32;;;;;;;10.38;7.82;;;14.00;99.90;;;;;;4930456;28;20026;-82
2022/05/10 03:36:01;;;;;;;9.23;7.35;;;14.00;99.90;;;;;;4958191;28;20038;-81
2022/05/10 03:38:29;;;;;;;10.95;8.77;;;14.00;99.90;;;;;;4908419;28;21550;-81
2022/05/10 03:40:56;;;;;;;12.00;9.02;;;14.00;99.90;;;;;;4925295;28;20035;-82
2022/05/10 03:43:23;;;;;;;10.38;7.80;;;13.90;99.90;;;;;;4946772;28;20050;-81
2022/05/10 03:45:49;;;;;;;9.15;7.45;;;14.00;99.90;;;;;;4926390;28;20050;-81
2022/05/10 03:48:18;;;;;;;10.77;7.10;;;14.00;99.90;;;;;;4939397;28;20038;-81
2022/05/10 03:50:45;;;;;;;9.85;7.07;;;13.90;99.90;;;;;;4913897;28;20347;-81
2022/05/10 03:53:11;;;;;;;10.38;8.43;;;13.90;99.90;;;;;;4943767;28;20023;-81
2022/05/10 03:55:38;;;;;;;17.90;10.45;;;13.90;99.90;;;;;;4927151;28;20019;-81
2022/05/10 03:58:05;;;;;;;14.48;9.90;;;13.90;99.90;;;;;;4942747;28;20027;-81
2022/05/10 04:00:34;;;;;;;14.65;10.25;;;14.00;99.90;;;;;;4939754;28;20038;-81
2022/05/10 04:03:00;;;;;;;16.25;10.52;;;13.90;99.90;;;;;;4930778;28;20395;-82
2022/05/10 04:05:27;;;;;;;14.90;10.02;;;13.90;99.90;;;;;;4941521;28;20031;-82
2022/05/10 04:07:54;;;;;;;13.13;9.50;;;14.00;99.90;;;;;;4926619;28;20356;-81
2022/05/10 04:10:22;;;;;;;10.50;8.10;;;14.00;99.90;;;;;;4956093;28;20125;-82
2022/05/10 04:12:49;;;;;;;9.82;8.02;;;14.00;99.90;;;;;;4944229;28;20478;-82
2022/05/10 04:15:17;;;;;;;10.40;8.60;;;14.00;99.90;;;;;;4945417;28;20474;-81
2022/05/10 04:17:44;;;;;;;9.68;8.20;;;14.00;99.90;;;;;;4957530;28;20035;-81
2022/05/10 04:20:14;;;;;;;13.00;8.50;;;14.00;99.90;;;;;;4953997;28;20038;-82
2022/05/10 04:22:41;;;;;;;11.57;7.63;;;14.00;99.90;;;;;;4939869;28;20059;-81
2022/05/10 04:25:08;;;;;;;11.45;8.27;;;14.10;99.90;;;;;;4923245;28;20031;-81
2022/05/10 04:27:35;;;;;;;10.23;8.35;;;14.10;99.90;;;;;;4923258;28;20038;-82
2022/05/10 04:30:02;;;;;;;11.15;8.88;;;14.10;99.90;;;;;;4943074;28;20578;-82
2022/05/10 04:32:31;;;;;;;12.70;8.65;;;14.20;99.90;;;;;;4944215;28;21451;-82
2022/05/10 04:34:58;;;;;;;11.02;8.45;;;14.20;99.90;;;;;;4944680;28;20039;-81
2022/05/10 04:37:24;;;;;;;14.55;8.23;;;14.30;99.90;;;;;;4959230;28;20034;-81
2022/05/10 04:42:35;;;;;;;14.45;8.52;;;14.40;99.90;;;;;;4960511;28;20057;-82
2022/05/10 04:45:02;;;;;;;12.85;9.70;;;14.40;99.90;;;;;;4962805;28;20010;-82
2022/05/10 04:47:29;;;;;;;10.60;9.25;;;14.50;99.90;;;;;;4932779;28;20043;-82
2022/05/10 04:49:55;;;;;;;10.65;8.98;;;14.60;99.90;;;;;;4929874;28;20494;-82
2022/05/10 04:52:24;;;;;;;10.82;8.68;;;14.60;99.90;;;;;;4919419;28;20030;-82
2022/05/10 04:54:54;;;;;;;14.05;9.27;;;14.70;99.90;;;;;;4948098;28;20483;-82
2022/05/10 04:57:27;;;;;;;12.48;9.80;;;14.80;99.90;;;;;;4945088;28;20022;-82
2022/05/10 04:59:54;;;;;;;11.77;8.65;;;14.80;99.90;;;;;;4915618;28;20388;-81
2022/05/10 05:02:20;;;;;;;16.20;11.18;;;14.90;99.90;;;;;;4957432;28;20054;-81
2022/05/10 05:04:47;;;;;;;15.90;10.25;;;14.90;99.90;;;;;;4949724;28;20038;-82
2022/05/10 05:07:15;;;;;;;13.27;10.85;;;15.00;99.90;;;;;;4963757;28;20023;-81
2022/05/10 05:09:41;;;;;;;14.48;10.50;;;15.10;99.90;;;;;;4913796;28;21062;-82
2022/05/10 05:12:08;;;;;;;11.55;10.13;;;15.10;99.90;;;;;;4957263;28;20018;-82
2022/05/10 05:14:39;;;;;;;12.13;9.43;;;15.20;99.90;;;;;;4940957;28;20379;-83
2022/05/10 05:17:06;;;;;;;15.23;11.35;;;15.30;99.90;;;;;;4958397;28;20023;-83
2022/05/10 05:19:32;;;;;;;16.92;11.25;;;15.30;99.90;;;;;;4946333;28;20026;-83
2022/05/10 05:21:59;;;;;;;13.77;11.90;;;15.40;99.90;;;;;;4945490;28;20478;-84
2022/05/10 05:24:25;;;;;;;14.20;11.80;;;15.60;99.90;;;;;;4960047;28;20471;-84
2022/05/10 05:26:53;;;;;;;15.32;12.30;;;15.70;99.90;;;;;;4944341;28;20050;-85
2022/05/10 05:29:22;;;;;;;17.50;13.48;;;15.80;99.90;;;;;;4960904;28;20383;-77
2022/05/10 05:31:51;;;;;;;15.75;12.02;;;16.00;99.90;;;;;;4945447;28;20035;-85
2022/05/10 05:34:19;;;;;;;17.83;13.77;;;16.10;99.90;;;;;;4927712;28;20046;-86
2022/05/10 05:37:32;;;;;;;14.55;11.82;;;16.20;99.90;;;;;;4957637;28;20023;-79
2022/05/10 05:39:35;;;;;;;11.48;9.48;;;16.30;99.90;;;;;;4929840;28;20038;-82
2022/05/10 05:42:05;;;;;;;17.00;12.85;;;16.40;99.90;;;;;;4961166;28;20023;-82
2022/05/10 05:44:35;;;;;;;15.02;12.85;;;16.50;99.90;;;;;;4959507;28;20133;-83
2022/05/10 05:47:02;;;;;;;19.60;13.73;;;16.60;99.90;;;;;;4945804;28;20031;-83
2022/05/10 05:49:28;;;;;;;16.33;12.30;;;16.60;99.90;;;;;;4959157;28;20023;-82
2022/05/10 05:51:56;;;;;;;18.00;13.32;;;16.60;99.90;;;;;;4917536;28;20034;-82
2022/05/10 05:54:27;;;;;;;15.35;12.70;;;16.70;99.90;;;;;;4945594;28;20060;-82
2022/05/10 05:57:05;;;;;;;21.08;13.10;;;16.70;99.90;;;;;;4925622;28;20035;-81
2022/05/10 05:59:34;;;;;;;14.95;10.65;;;16.70;99.90;;;;;;4935873;28;20019;-82
2022/05/10 06:02:00;;;;;;;17.00;12.68;;;16.80;99.90;;;;;;4927430;28;20039;-82
2022/05/10 06:04:27;;;;;;;16.48;13.18;;;16.80;99.90;;;;;;4930681;28;20057;-82
2022/05/10 06:06:53;;;;;;;18.90;13.43;;;16.80;99.90;;;;;;4945237;28;20027;-82
2022/05/10 06:09:22;;;;;;;19.23;13.52;;;16.90;99.90;;;;;;4930428;28;20031;-81
2022/05/10 06:11:49;;;;;;;18.65;14.20;;;17.00;99.90;;;;;;4926599;28;20023;-82
2022/05/10 06:14:16;;;;;;;25.30;13.32;;;17.10;99.90;;;;;;4957251;28;20039;-85
2022/05/10 06:16:44;;;;;;;20.65;13.73;;;17.20;99.90;;;;;;4931624;28;20043;-83
2022/05/10 06:19:13;;;;;;;16.02;12.18;;;17.20;99.90;;;;;;4932864;28;20486;-84
2022/05/10 06:21:41;;;;;;;17.95;12.05;;;17.40;99.90;;;;;;4939481;28;20050;-84
2022/05/10 06:24:10;;;;;;;14.98;12.88;;;17.40;99.90;;;;;;4929976;28;20031;-82
2022/05/10 06:26:39;;;;;;;14.02;11.38;;;17.50;99.90;;;;;;4926376;28;20526;-85
2022/05/10 06:29:26;;;;;;;13.27;11.75;;;17.60;99.90;;;;;;4955651;28;20050;-85
2022/05/10 06:32:00;;;;;;;19.58;12.50;;;17.70;99.90;;;;;;4929292;28;20053;-85
2022/05/10 06:34:34;;;;;;;17.75;13.48;;;17.80;99.90;;;;;;4962740;28;20483;-84
2022/05/10 06:38:15;;;;;;;15.48;11.10;;;17.90;99.90;;;;;;4942712;28;20470;-84
2022/05/10 06:39:51;;;;;;;12.82;11.18;;;17.90;99.90;;;;;;4941762;28;20034;-85
2022/05/10 06:42:24;;;;;;;15.50;11.57;;;18.00;99.90;;;;;;4944456;28;20038;-85
2022/05/10 06:44:50;;;;;;;17.00;13.35;;;18.10;99.90;;;;;;4943824;28;20031;-84
2022/05/10 06:47:17;;;;;;;13.68;12.18;;;18.30;99.80;;;;;;4935135;28;20022;-85
2022/05/10 06:49:46;;;;;;;18.05;12.52;;;18.50;99.60;;;;;;4953303;28;20038;-95
2022/05/10 06:52:47;;;;;;;17.90;13.25;;;18.60;99.40;;;;;;4974206;28;20051;-94
2022/05/10 06:55:51;;;;;;;18.10;13.90;;;18.80;99.20;;;;;;4936429;28;20043;-93
2022/05/10 06:58:28;;;;;;;16.95;13.10;;;18.90;98.90;;;;;;4962043;28;20031;-93
2022/05/10 07:01:15;;;;;;;16.42;13.27;;;19.10;98.80;;;;;;4952980;28;20038;-92
2022/05/10 07:04:07;;;;;;;19.17;13.43;;;19.20;98.60;;;;;;4947824;29;20039;-94
2022/05/10 07:06:45;;;;;;;16.77;12.35;;;19.40;98.40;;;;;;4946581;28;20042;-93
2022/05/10 07:09:21;;;;;;;17.08;13.52;;;19.50;98.10;;;;;;4928296;29;20047;-92
2022/05/10 07:12:10;;;;;;;18.35;13.65;;;19.70;97.90;;;;;;4921138;29;20047;-93
2022/05/10 07:14:53;;;;;;;19.27;12.35;;;19.80;97.70;;;;;;4910124;29;20031;-93
2022/05/10 07:17:21;;;;;;;18.17;14.15;;;19.90;97.60;;;;;;4937528;29;20371;-90
2022/05/10 07:19:48;;;;;;;17.80;12.57;;;20.00;97.40;;;;;;4936939;29;22164;-84
2022/05/10 07:22:15;;;;;;;14.90;12.43;;;20.10;97.30;;;;;;4928628;28;20019;-86
2022/05/10 07:24:42;;;;;;;15.25;11.27;;;20.30;97.10;;;;;;4926981;29;20035;-83
2022/05/10 07:27:11;;;;;;;16.58;12.40;;;20.40;96.90;;;;;;4952550;28;20031;-85
2022/05/10 07:29:52;;;;;;;17.70;11.63;;;20.50;96.70;;;;;;4941566;29;20042;-85
2022/05/10 07:32:29;;;;;;;18.42;12.63;;;20.60;96.60;;;;;;4913011;29;20043;-84
2022/05/10 07:35:03;;;;;;;16.60;12.88;;;20.70;96.20;;;;;;4896604;29;20068;-86
2022/05/10 07:37:39;;;;;;;12.95;11.05;;;20.80;96.00;;;;;;4907726;29;20047;-83
2022/05/10 07:40:11;;;;;;;16.00;12.43;;;20.90;95.90;;;;;;4906371;29;20060;-83
2022/05/10 07:43:02;;;;;;;15.93;12.48;;;21.00;95.70;;;;;;4894615;29;20050;-82
2022/05/10 07:45:31;;;;;;;15.13;11.32;;;21.30;95.50;;;;;;4905862;29;20052;-83
2022/05/10 07:47:57;;;;;;;14.50;11.18;;;21.60;95.20;;;;;;4907454;29;20027;-81
2022/05/10 07:50:29;;;;;;;14.18;9.00;;;21.90;94.80;;;;;;4888735;29;20067;-79
2022/05/10 07:52:55;;;;;;;13.05;10.13;;;22.20;94.50;;;;;;4904712;29;20059;-83
2022/05/10 07:55:22;;;;;;;10.30;9.18;;;22.40;94.20;;;;;;4891281;29;20063;-81
2022/05/10 07:57:48;;;;;;;10.73;9.63;;;22.60;93.90;;;;;;4904306;29;20036;-81
2022/05/10 08:00:15;;;;;;;8.15;7.35;;;22.70;93.70;;;;;;4903731;29;20043;-81
2022/05/10 08:02:43;;;;;;;10.95;9.20;;;22.80;93.50;;;;;;4903594;29;20031;-81
2022/05/10 08:05:15;;;;;;;9.80;8.80;;;22.90;93.10;;;;;;4894814;29;20074;-82
2022/05/10 08:07:42;;;;;;;13.60;10.57;;;23.00;92.40;;;;;;4938701;29;20034;-81
2022/05/10 08:10:09;;;;;;;10.85;9.50;;;23.30;92.20;;;;;;4950245;28;20040;-80
2022/05/10 08:12:37;;;;;;;8.68;6.90;;;23.60;91.60;;;;;;4924840;29;23201;-82
2022/05/10 08:15:05;;;;;;;7.55;6.78;;;23.90;91.30;;;;;;4940048;28;20015;-84
2022/05/10 08:17:31;;;;;;;12.75;8.73;;;24.20;90.80;;;;;;4952832;28;20061;-85
2022/05/10 08:19:58;;;;;;;8.18;7.38;;;24.30;89.00;;;;;;4924136;29;20044;-86
2022/05/10 08:22:24;;;;;;;7.80;6.75;;;24.20;88.10;;;;;;4937170;29;20031;-88
2022/05/10 08:24:51;;;;;;;8.63;6.63;;;24.20;87.80;;;;;;4944947;28;20043;-86
2022/05/10 08:27:18;;;;;;;5.10;4.55;;;24.20;87.30;;;;;;4924534;29;20031;-84
2022/05/10 08:29:45;;;;;;;5.95;4.47;;;24.30;87.20;;;;;;4944094;28;20043;-86
2022/05/10 08:32:11;;;;;;;6.13;5.53;;;24.40;87.00;;;;;;4934566;29;20038;-86
2022/05/10 08:34:38;;;;;;;9.73;6.97;;;24.60;86.30;;;;;;4909304;29;20043;-82
2022/05/10 08:37:06;;;;;;;7.15;5.30;;;24.80;84.90;;;;;;4924253;29;20047;-83
2022/05/10 08:39:35;;;;;;;9.98;6.22;;;24.80;84.40;;;;;;4943294;28;20047;-82
2022/05/10 08:42:13;;;;;;;5.80;5.18;;;24.90;84.20;;;;;;4906909;29;20027;-83
2022/05/10 08:44:40;;;;;;;6.15;4.90;;;25.00;83.90;;;;;;4943253;28;20050;-83
2022/05/10 08:47:10;;;;;;;8.75;5.50;;;25.00;83.50;;;;;;4908982;29;20043;-83
2022/05/10 08:49:48;;;;;;;7.43;4.15;;;25.00;83.10;;;;;;4925272;29;20040;-83
2022/05/10 08:53:04;;;;;;;4.38;3.28;;;25.00;83.10;;;;;;4955136;28;20028;-82
2022/05/10 08:55:40;;;;;;;9.05;4.53;;;24.90;83.00;;;;;;4908894;29;20032;-80
2022/05/10 08:58:36;;;;;;;6.30;4.72;;;24.70;82.90;;;;;;4947556;28;20024;-79
2022/05/10 09:01:09;;;;;;;9.90;5.40;;;24.60;82.70;;;;;;4936143;28;20048;-82
2022/05/10 09:04:06;;;;;;;18.17;13.50;;;24.50;82.70;;;;;;4955574;28;20042;-80
2022/05/10 09:06:44;;;;;;;9.13;7.20;;;24.50;82.40;;;;;;4919418;29;20028;-80
2022/05/10 09:09:56;;;;;;;8.52;4.82;;;24.40;82.40;;;;;;4935327;28;20372;-80
2022/05/10 09:12:25;;;;;;;8.10;4.22;;;24.30;82.30;;;;;;4934663;28;20453;-80
2022/05/10 09:15:12;;;;;;;4.68;3.30;;;24.30;82.50;;;;;;4935290;28;20036;-81
2022/05/10 09:17:39;;;;;;;11.25;4.20;;;24.40;81.80;;;;;;4918741;29;20058;-80
2022/05/10 09:20:08;;;;;;;4.70;3.50;;;24.30;81.60;;;;;;4923801;29;20039;-80
2022/05/10 09:22:53;;;;;;;5.63;3.35;;;24.40;81.60;;;;;;4906541;29;20376;-82
2022/05/10 09:25:39;;;;;;;3.95;2.75;;;24.60;81.20;;;;;;4923604;29;20376;-80
2022/05/10 09:28:59;;;;;;;5.97;3.28;;;24.90;80.80;;;;;;4923854;29;20452;-82
2022/05/10 09:35:22;;;;;;;4.65;2.83;;;25.10;79.50;;;;;;4869321;29;20490;-81
2022/05/10 09:38:09;;;;;;;7.47;2.72;;;25.10;78.80;;;;;;4769525;29;20383;-82
2022/05/10 09:40:48;;;;;;;4.70;2.28;;;25.30;78.30;;;;;;4853642;29;20064;-82
2022/05/10 09:43:28;;;;;;;4.60;3.00;;;25.50;77.70;;;;;;4901546;29;20056;-82
2022/05/10 09:46:23;;;;;;;5.85;2.83;;;25.70;76.30;;;;;;4924032;29;20129;-81
2022/05/10 09:48:50;;;;;;;3.17;2.08;;;25.90;75.90;;;;;;4919404;29;20040;-82
2022/05/10 09:51:36;;;;;;;6.35;2.53;;;26.20;75.30;;;;;;4919110;29;20514;-83
2022/05/10 09:54:11;;;;;;;4.63;3.33;;;26.50;74.10;;;;;;4923381;29;20027;-82
2022/05/10 09:56:43;;;;;;;8.10;3.15;;;26.70;72.50;;;;;;4902203;29;20039;-84
2022/05/10 09:59:12;;;;;;;5.15;2.30;;;26.80;70.90;;;;;;4892154;29;20051;-83
2022/05/10 10:01:47;;;;;;;4.28;1.92;;;26.90;70.20;;;;;;4934120;28;20024;-82
2022/05/10 10:04:31;;;;;;;2.83;2.03;;;27.00;69.90;;;;;;4924316;28;20047;-84
2022/05/10 10:07:17;;;;;;;7.90;2.63;;;27.30;69.00;;;;;;4938524;28;20071;-83
2022/05/10 10:10:11;;;;;;;6.88;2.63;;;27.60;68.10;;;;;;4943368;29;20375;-84
2022/05/10 10:12:41;;;;;;;4.47;2.20;;;27.70;67.10;;;;;;4927754;29;20031;-85
2022/05/10 10:15:26;;;;;;;6.00;2.53;;;27.70;66.40;;;;;;4898559;29;20116;-86
2022/05/10 10:18:19;;;;;;;6.00;1.85;;;27.70;65.80;;;;;;4922029;29;20038;-80
2022/05/10 10:20:53;;;;;;;3.55;2.08;;;27.70;65.70;;;;;;4924505;29;20050;-86
2022/05/10 10:23:25;;;;;;;8.27;5.00;;;28.20;65.70;;;;;;4960777;28;21290;-85
2022/05/10 10:26:38;;;;;;;6.68;3.10;;;28.60;65.10;;;;;;4934799;29;20406;-87
2022/05/10 10:29:17;;;;;;;4.18;2.15;;;29.00;63.90;;;;;;4929291;29;20364;-83
2022/05/10 10:32:00;;;;;;;4.47;1.98;;;29.20;63.20;;;;;;4958549;28;20038;-82
2022/05/10 10:34:55;;;;;;;3.17;2.17;;;29.40;62.00;;;;;;4946382;28;20028;-83
2022/05/10 10:37:28;;;;;;;3.63;2.22;;;29.60;61.20;;;;;;4914899;29;20035;-84
2022/05/10 10:40:06;;;;;;;5.63;2.25;;;29.60;60.40;;;;;;4937418;29;20051;-84
2022/05/10 10:42:54;;;;;;;4.95;1.92;;;29.50;59.20;;;;;;4947067;28;20038;-84
2022/05/10 10:45:38;;;;;;;6.00;2.38;;;29.40;59.60;;;;;;4929893;29;20047;-83
2022/05/10 10:48:27;;;;;;;5.93;2.40;;;29.30;59.50;;;;;;4939322;28;20027;-82
2022/05/10 10:50:55;;;;;;;4.28;2.33;;;29.30;58.90;;;;;;4927728;29;20035;-83
2022/05/10 10:53:25;;;;;;;3.03;2.00;;;29.40;58.80;;;;;;4960349;28;20517;-82
2022/05/10 10:56:14;;;;;;;4.78;2.15;;;29.50;59.00;;;;;;4927601;29;20042;-84
2022/05/10 10:59:08;;;;;;;4.13;2.30;;;29.70;59.10;;;;;;4941249;28;20039;-81
2022/05/10 11:01:56;;;;;;;3.60;1.73;;;29.90;57.60;;;;;;4959109;28;20367;-80
2022/05/10 11:04:56;;;;;;;4.13;2.65;;;29.90;57.60;;;;;;4955173;28;20115;-79
2022/05/10 11:07:51;;;;;;;5.03;2.45;;;29.80;57.30;;;;;;4919468;29;20059;-89
2022/05/10 11:10:37;;;;;;;4.03;1.80;;;29.90;57.60;;;;;;4910608;29;20038;-87
2022/05/10 11:13:36;;;;;;;5.57;2.50;;;30.30;57.50;;;;;;4915975;29;20075;-87
2022/05/10 11:16:06;;;;;;;8.23;3.20;;;30.30;56.60;;;;;;4903722;29;20411;-87
2022/05/10 11:18:55;;;;;;;5.20;2.92;;;30.00;56.30;;;;;;4924354;29;20032;-87
2022/05/10 11:21:44;;;;;;;;;;;29.90;56.60;;;;;;4908833;29;20047;-86
2022/05/10 11:24:32;;;;;;;3.80;2.22;;;29.80;56.30;;;;;;4925270;29;19926;-89
2022/05/10 11:27:13;;;;;;;3.50;1.98;;;29.90;56.80;;;;;;4937029;28;20062;-87
2022/05/10 11:30:33;;;;;;;3.20;1.67;;;30.00;56.70;;;;;;4912195;29;20051;-88
2022/05/10 11:33:31;;;;;;;7.03;2.63;;;30.00;56.30;;;;;;4922225;29;20048;-89
2022/05/10 11:36:25;;;;;;;6.80;1.95;;;29.90;55.80;;;;;;4923915;29;20035;-92
2022/05/10 11:39:27;;;;;;;7.22;2.67;;;29.90;55.50;;;;;;4927285;29;20035;-89
2022/05/10 11:42:03;;;;;;;9.80;2.13;;;29.70;55.20;;;;;;4920193;29;20396;-90
2022/05/10 11:45:10;;;;;;;3.03;1.55;;;29.60;55.00;;;;;;4936253;28;20058;-89
2022/05/10 11:48:06;;;;;;;4.35;1.77;;;29.50;55.20;;;;;;4900363;29;20040;-81
2022/05/10 11:54:19;;;;;;;3.75;1.90;;;29.00;55.60;;;;;;4917676;29;20515;-82
2022/05/10 11:56:49;;;;;;;6.05;2.15;;;28.90;55.90;;;;;;4936173;28;20039;-82
2022/05/10 11:59:23;;;;;;;2.55;1.67;;;28.70;55.90;;;;;;4904274;29;20028;-82
2022/05/10 12:01:52;;;;;;;3.78;2.60;;;28.60;56.20;;;;;;4905436;29;20040;-82
2022/05/10 12:04:39;;;;;;;3.92;1.77;;;28.60;56.60;;;;;;4907256;29;20027;-83
2022/05/10 12:07:20;;;;;;;6.88;3.50;;;28.70;57.00;;;;;;4922713;29;20067;-82
2022/05/10 12:10:23;;;;;;;5.25;2.65;;;28.90;56.70;;;;;;4957416;28;20036;-82
2022/05/10 12:12:57;;;;;;;4.45;2.22;;;29.00;56.60;;;;;;4960581;28;22424;-83
2022/05/10 12:21:21;;;;;;;6.30;2.00;;;29.20;55.70;;;;;;4936667;29;20054;-83
2022/05/10 12:24:26;;;;;;;2.83;1.80;;;29.40;55.50;;;;;;4959291;28;20464;-82
2022/05/10 12:27:19;;;;;;;3.85;2.08;;;29.60;55.20;;;;;;4913979;29;20482;-85
2022/05/10 12:29:45;;;;;;;5.65;2.75;;;29.60;54.70;;;;;;4923218;29;20048;-81
2022/05/10 12:32:21;;;;;;;7.55;2.05;;;29.40;55.00;;;;;;4938563;29;20514;-82
2022/05/10 12:34:58;;;;;;;6.85;2.35;;;29.50;55.30;;;;;;4910885;29;20046;-83
2022/05/10 12:40:09;;;;;;;9.52;2.40;;;29.80;53.90;;;;;;4940384;28;20043;-82
2022/05/10 12:42:43;;;;;;;6.18;2.40;;;29.50;53.90;;;;;;4924820;29;20036;-82
2022/05/10 12:45:34;;;;;;;3.80;2.00;;;29.10;54.80;;;;;;4940411;29;20047;-82
2022/05/10 12:48:19;;;;;;;4.93;2.10;;;28.80;55.10;;;;;;4939483;29;20034;-83
2022/05/10 12:51:16;;;;;;;5.07;2.63;;;28.60;55.90;;;;;;4944975;28;20023;-83
2022/05/10 12:54:09;;;;;;;3.40;1.67;;;28.50;56.00;;;;;;4896376;29;20211;-83
2022/05/10 12:56:42;;;;;;;5.32;2.40;;;28.60;56.10;;;;;;4956465;28;20066;-83
2022/05/10 12:59:30;;;;;;;3.05;1.90;;;28.80;55.80;;;;;;4963310;28;20035;-84
2022/05/10 13:01:58;;;;;;;4.75;2.28;;;29.10;55.90;;;;;;4947908;28;20039;-80
2022/05/10 13:04:41;;;;;;;3.50;1.75;;;29.30;56.20;;;;;;4962260;28;20031;-82
2022/05/10 13:07:44;;;;;;;6.60;2.13;;;29.30;55.90;;;;;;4950225;28;20059;-81
2022/05/10 13:10:20;;;;;;;5.70;2.70;;;29.20;55.90;;;;;;4879265;29;20048;-82
2022/05/10 13:13:17;;;;;;;4.88;2.30;;;29.00;56.00;;;;;;4893575;29;20032;-84
2022/05/10 13:15:54;;;;;;;5.97;2.05;;;28.80;56.30;;;;;;4887634;29;20381;-83
2022/05/10 13:18:33;;;;;;;3.95;2.55;;;28.70;56.10;;;;;;4903897;29;20512;-81
2022/05/10 13:21:00;;;;;;;4.65;1.92;;;28.70;56.00;;;;;;4889651;29;20051;-83
2022/05/10 13:23:33;;;;;;;5.03;2.35;;;28.70;56.20;;;;;;4894412;29;20044;-84
2022/05/10 13:26:08;;;;;;;2.97;1.83;;;28.50;55.90;;;;;;4875921;29;20512;-82
2022/05/10 13:28:51;;;;;;;3.50;1.70;;;28.30;56.40;;;;;;4914829;29;21294;-83
2022/05/10 13:31:23;;;;;;;5.20;1.80;;;28.00;56.90;;;;;;4939557;29;20024;-91
2022/05/10 13:34:08;;;;;;;;;;;27.90;57.40;;;;;;4935140;29;20023;-90
2022/05/10 13:36:40;;;;;;;6.80;2.35;;;27.80;57.80;;;;;;4943267;29;19911;-90
2022/05/10 13:39:13;;;;;;;5.93;2.22;;;27.90;57.90;;;;;;4945146;29;20066;-90
2022/05/10 13:41:39;;;;;;;;;;;28.00;57.90;;;;;;4941867;29;20050;-90
2022/05/10 13:44:12;;;;;;;7.13;2.17;;;28.10;57.70;;;;;;4947776;29;19919;-92
2022/05/10 13:46:54;;;;;;;6.55;2.42;;;28.30;57.50;;;;;;4930430;29;20039;-85
2022/05/10 13:49:26;;;;;;;5.40;2.42;;;28.30;57.20;;;;;;4947148;29;20027;-88